createdAt,value
2024-03-03T00:00:26.652Z,56.28
2024-03-03T00:02:28.542Z,59.60
2024-03-03T00:04:30.354Z,54.10
2024-03-03T00:06:33.299Z,56.78
2024-03-03T00:08:35.050Z,54.90
2024-03-03T00:10:36.900Z,55.50
2024-03-03T00:12:39.434Z,55.10
2024-03-03T00:14:41.205Z,49.72
2024-03-03T00:16:43.644Z,58.78
2024-03-03T00:18:45.471Z,54.25
2024-03-03T00:20:47.210Z,53.45
2024-03-03T00:22:49.782Z,50.30
2024-03-03T00:24:52.229Z,53.03
2024-03-03T00:26:54.115Z,51.92
2024-03-03T00:28:55.940Z,51.63
2024-03-03T00:30:57.828Z,54.70
2024-03-03T00:33:00.177Z,50.33
2024-03-03T00:35:02.094Z,44.80
2024-03-03T00:37:04.085Z,41.08
2024-03-03T00:39:06.031Z,41.70
2024-03-03T00:41:08.160Z,40.83
2024-03-03T00:43:10.005Z,40.90
2024-03-03T00:45:12.876Z,42.90
2024-03-03T00:47:14.691Z,48.80
2024-03-03T00:49:16.531Z,48.97
2024-03-03T00:51:18.501Z,52.15
2024-03-03T00:53:22.181Z,51.42
2024-03-03T00:55:24.876Z,55.53
2024-03-03T00:57:26.984Z,56.40
2024-03-03T00:59:28.966Z,50.20
2024-03-03T01:01:31.520Z,48.80
2024-03-03T01:03:33.347Z,53.40
2024-03-03T01:05:35.189Z,51.92
2024-03-03T01:07:39.602Z,48.45
2024-03-03T01:09:42.897Z,56.47
2024-03-03T01:11:45.248Z,49.55
2024-03-03T01:13:47.165Z,50.50
2024-03-03T01:15:48.984Z,56.30
2024-03-03T01:17:50.940Z,60.15
2024-03-03T01:19:52.801Z,54.75
2024-03-03T01:21:54.802Z,48.88
2024-03-03T01:23:57.558Z,51.60
2024-03-03T01:25:59.396Z,55.10
2024-03-03T01:28:01.294Z,52.92
2024-03-03T01:30:05.199Z,51.33
2024-03-03T01:32:09.596Z,44.38
2024-03-03T01:34:11.428Z,48.78
2024-03-03T01:36:14.842Z,44.97
2024-03-03T01:38:17.017Z,47.05
2024-03-03T01:40:19.016Z,45.60
2024-03-03T01:42:20.926Z,39.15
2024-03-03T01:44:22.855Z,40.05
2024-03-03T01:46:25.380Z,40.55
2024-03-03T01:48:27.313Z,41.53
2024-03-03T01:50:29.304Z,41.50
2024-03-03T01:52:31.296Z,40.55
2024-03-03T01:54:34.334Z,41.33
2024-03-03T01:56:36.660Z,38.23
2024-03-03T01:58:40.406Z,39.47
2024-03-03T02:00:42.310Z,34.92
2024-03-03T02:02:45.608Z,34.88
2024-03-03T02:04:47.871Z,37.10
2024-03-03T02:06:51.916Z,37.00
2024-03-03T02:08:53.940Z,39.47
2024-03-03T02:10:55.916Z,39.72
2024-03-03T02:12:57.914Z,35.55
2024-03-03T02:15:00.043Z,38.13
2024-03-03T02:17:02.391Z,36.70
2024-03-03T02:19:04.205Z,36.80
2024-03-03T02:21:06.091Z,35.15
2024-03-03T02:23:08.213Z,35.10
2024-03-03T02:25:10.598Z,38.05
2024-03-03T02:27:12.598Z,32.83
2024-03-03T02:29:14.900Z,30.58
2024-03-03T02:31:16.893Z,36.90
2024-03-03T02:33:19.169Z,30.20
2024-03-03T02:35:21.010Z,27.67
2024-03-03T02:37:22.893Z,33.72
2024-03-03T02:39:24.810Z,32.30
2024-03-03T02:41:27.086Z,32.42
2024-03-03T02:43:29.002Z,28.08
2024-03-03T02:45:30.957Z,31.83
2024-03-03T02:47:32.930Z,36.40
2024-03-03T02:49:35.068Z,35.72
2024-03-03T02:51:37.032Z,27.60
2024-03-03T02:53:38.938Z,29.52
2024-03-03T02:55:40.664Z,33.47
2024-03-03T02:57:43.554Z,29.95
2024-03-03T02:59:45.567Z,27.73
2024-03-03T03:01:47.389Z,32.28
2024-03-03T03:03:49.349Z,27.95
2024-03-03T03:05:51.269Z,28.38
2024-03-03T03:07:53.142Z,26.77
2024-03-03T03:09:54.956Z,30.98
2024-03-03T03:11:56.840Z,28.88
2024-03-03T03:13:58.713Z,28.67
2024-03-03T03:16:04.618Z,32.63
2024-03-03T03:18:06.952Z,33.05
2024-03-03T03:20:09.423Z,37.13
2024-03-03T03:22:11.180Z,56.55
2024-03-03T03:24:13.061Z,58.00
2024-03-03T03:26:14.905Z,58.08
2024-03-03T03:28:16.916Z,71.95
2024-03-03T03:30:18.845Z,67.15
2024-03-03T03:32:20.687Z,66.82
2024-03-03T03:34:22.488Z,71.13
2024-03-03T03:36:24.212Z,72.22
2024-03-03T03:38:26.374Z,64.28
2024-03-03T03:40:29.574Z,61.88
2024-03-03T03:42:31.619Z,55.22
2024-03-03T03:44:33.503Z,56.97
2024-03-03T03:46:35.313Z,55.47
2024-03-03T03:48:37.443Z,54.58
2024-03-03T03:50:39.293Z,52.38
2024-03-03T03:52:41.054Z,53.15
2024-03-03T03:54:42.877Z,50.38
2024-03-03T03:56:44.690Z,55.53
2024-03-03T03:58:46.638Z,49.50
2024-03-03T04:00:48.461Z,49.28
2024-03-03T04:02:50.198Z,53.38
2024-03-03T04:04:52.076Z,91.97
2024-03-03T04:06:54.327Z,82.95
2024-03-03T04:08:56.395Z,57.17
2024-03-03T04:11:00.428Z,59.67
2024-03-03T04:13:03.088Z,60.95
2024-03-03T04:15:05.560Z,54.60
2024-03-03T04:17:07.664Z,59.72
2024-03-03T04:19:09.745Z,63.97
2024-03-03T04:21:11.617Z,57.03
2024-03-03T04:23:13.394Z,63.72
2024-03-03T04:25:16.512Z,66.30
2024-03-03T04:27:18.361Z,61.28
2024-03-03T04:29:20.231Z,59.42
2024-03-03T04:31:22.448Z,60.03
2024-03-03T04:33:24.711Z,67.68
2024-03-03T04:35:26.443Z,64.53
2024-03-03T04:37:28.322Z,65.68
2024-03-03T04:39:30.137Z,63.42
2024-03-03T04:41:32.697Z,68.28
2024-03-03T04:43:34.557Z,72.80
2024-03-03T04:45:36.394Z,68.40
2024-03-03T04:47:38.235Z,63.40
2024-03-03T04:49:42.858Z,80.22
2024-03-03T04:51:45.142Z,66.57
2024-03-03T04:53:46.995Z,75.43
2024-03-03T04:55:48.796Z,69.40
2024-03-03T04:57:50.812Z,75.45
2024-03-03T04:59:52.895Z,69.22
2024-03-03T05:01:54.655Z,85.53
2024-03-03T05:03:57.694Z,77.05
2024-03-03T05:05:59.560Z,88.73
2024-03-03T05:08:01.407Z,81.25
2024-03-03T05:10:03.946Z,83.80
2024-03-03T05:12:06.992Z,89.03
2024-03-03T05:14:08.974Z,87.63
2024-03-03T05:16:11.051Z,97.35
2024-03-03T05:18:13.197Z,88.80
2024-03-03T05:20:15.065Z,90.15
2024-03-03T05:22:16.937Z,89.25
2024-03-03T05:24:18.780Z,96.78
2024-03-03T05:26:21.706Z,97.88
2024-03-03T05:28:25.227Z,94.27
2024-03-03T05:30:27.423Z,92.57
2024-03-03T05:32:29.304Z,103.70
2024-03-03T05:34:31.283Z,95.43
2024-03-03T05:36:35.104Z,103.68
2024-03-03T05:40:38.535Z,94.53
2024-03-03T05:42:40.536Z,100.32
2024-03-03T05:44:42.486Z,95.43
2024-03-03T05:46:44.395Z,100.68
2024-03-03T05:48:46.162Z,93.13
2024-03-03T05:50:47.892Z,98.90
2024-03-03T05:52:49.874Z,94.13
2024-03-03T05:54:51.665Z,96.20
2024-03-03T05:56:53.555Z,93.60
2024-03-03T05:58:55.843Z,101.63
2024-03-03T06:00:57.707Z,99.30
2024-03-03T06:02:59.594Z,92.75
2024-03-03T06:05:01.447Z,93.70
2024-03-03T06:07:06.761Z,95.32
2024-03-03T06:09:09.989Z,92.38
2024-03-03T06:11:12.093Z,101.55
2024-03-03T06:13:14.007Z,91.05
2024-03-03T06:15:15.783Z,94.60
2024-03-03T06:17:17.615Z,94.07
2024-03-03T06:19:19.550Z,90.25
2024-03-03T06:21:21.386Z,111.28
2024-03-03T06:23:23.357Z,100.05
2024-03-03T06:25:25.195Z,98.88
2024-03-03T06:27:27.023Z,103.63
2024-03-03T06:29:28.758Z,98.10
2024-03-03T06:31:30.445Z,97.32
2024-03-03T06:33:32.334Z,119.22
2024-03-03T06:35:34.233Z,95.95
2024-03-03T06:37:36.101Z,102.80
2024-03-03T06:39:37.908Z,107.22
2024-03-03T06:41:40.024Z,107.75
2024-03-03T06:43:42.800Z,105.43
2024-03-03T06:45:44.737Z,106.07
2024-03-03T06:47:46.596Z,108.18
2024-03-03T06:49:48.467Z,99.28
2024-03-03T06:51:50.493Z,107.57
2024-03-03T06:53:53.858Z,104.25
2024-03-03T06:55:55.779Z,103.18
2024-03-03T06:57:57.869Z,108.65
2024-03-03T06:59:59.768Z,104.45
2024-03-03T07:02:01.774Z,99.32
2024-03-03T07:04:09.653Z,103.85
2024-03-03T07:06:11.484Z,93.45
2024-03-03T07:08:13.371Z,105.72
2024-03-03T07:10:15.708Z,100.80
2024-03-03T07:12:17.580Z,101.97
2024-03-03T07:14:20.470Z,99.68
2024-03-03T07:16:22.268Z,105.18
2024-03-03T07:18:24.324Z,95.63
2024-03-03T07:20:26.270Z,103.55
2024-03-03T07:22:28.088Z,97.43
2024-03-03T07:24:29.937Z,101.18
2024-03-03T07:26:32.705Z,88.03
2024-03-03T07:28:34.422Z,100.95
2024-03-03T07:30:36.127Z,99.35
2024-03-03T07:32:39.692Z,93.50
2024-03-03T07:34:44.319Z,93.15
2024-03-03T07:36:47.500Z,91.70
2024-03-03T07:38:49.424Z,96.93
2024-03-03T07:40:51.230Z,94.50
2024-03-03T07:42:53.063Z,95.85
2024-03-03T07:44:54.903Z,90.78
2024-03-03T07:46:56.635Z,85.22
2024-03-03T07:48:58.675Z,102.65
2024-03-03T07:51:03.515Z,87.07
2024-03-03T07:53:05.484Z,84.72
2024-03-03T07:55:08.098Z,84.53
2024-03-03T07:57:09.927Z,92.40
2024-03-03T07:59:11.674Z,91.35
2024-03-03T08:01:13.659Z,89.45
2024-03-03T08:03:16.059Z,89.47
2024-03-03T08:05:17.871Z,88.78
2024-03-03T08:07:20.098Z,87.93
2024-03-03T08:09:21.959Z,88.10
2024-03-03T08:11:24.365Z,82.45
2024-03-03T08:13:26.292Z,89.93
2024-03-03T08:15:28.587Z,90.63
2024-03-03T08:17:30.384Z,84.65
2024-03-03T08:19:32.236Z,82.57
2024-03-03T08:21:33.980Z,85.53
2024-03-03T08:23:35.828Z,82.70
2024-03-03T08:25:37.783Z,72.50
2024-03-03T08:27:40.397Z,75.43
2024-03-03T08:29:42.117Z,76.30
2024-03-03T08:31:46.090Z,73.75
2024-03-03T08:33:47.919Z,70.78
2024-03-03T08:35:49.898Z,69.93
2024-03-03T08:37:53.862Z,66.70
2024-03-03T08:39:55.654Z,76.25
2024-03-03T08:41:57.528Z,71.65
2024-03-03T08:43:59.380Z,72.03
2024-03-03T08:46:01.286Z,71.05
2024-03-03T08:48:03.254Z,72.70
2024-03-03T08:50:05.621Z,72.32
2024-03-03T08:52:08.860Z,67.60
2024-03-03T08:54:10.756Z,73.18
2024-03-03T08:56:12.708Z,70.75
2024-03-03T08:58:14.495Z,66.43
2024-03-03T09:00:16.667Z,64.82
2024-03-03T09:02:18.630Z,65.32
2024-03-03T09:04:20.368Z,70.68
2024-03-03T09:06:22.390Z,66.68
2024-03-03T09:08:24.190Z,67.38
2024-03-03T09:10:26.375Z,57.75
2024-03-03T09:12:28.865Z,65.00
2024-03-03T09:14:30.745Z,55.55
2024-03-03T09:16:32.646Z,66.43
2024-03-03T09:18:34.546Z,50.40
2024-03-03T09:20:36.396Z,52.53
2024-03-03T09:22:38.509Z,50.28
2024-03-03T09:24:44.618Z,49.20
2024-03-03T09:26:50.297Z,52.08
2024-03-03T09:28:52.089Z,52.47
2024-03-03T09:30:54.239Z,49.83
2024-03-03T09:32:56.081Z,50.88
2024-03-03T09:34:57.925Z,52.28
2024-03-03T09:36:59.975Z,53.53
2024-03-03T09:39:02.459Z,52.50
2024-03-03T09:41:04.535Z,62.45
2024-03-03T09:43:09.658Z,59.05
2024-03-03T09:45:13.722Z,58.40
2024-03-03T09:47:16.816Z,63.35
2024-03-03T09:49:20.457Z,60.20
2024-03-03T09:51:25.469Z,56.28
2024-03-03T09:53:28.642Z,53.97
2024-03-03T09:55:31.625Z,48.08
2024-03-03T09:57:34.374Z,50.92
2024-03-03T09:59:36.476Z,50.33
2024-03-03T10:01:44.299Z,77.03
2024-03-03T10:03:46.292Z,53.65
2024-03-03T10:05:49.309Z,59.42
2024-03-03T10:07:54.620Z,55.33
2024-03-03T10:10:04.525Z,59.10
2024-03-03T10:12:07.415Z,62.60
2024-03-03T10:14:13.946Z,57.92
2024-03-03T10:16:16.507Z,57.53
2024-03-03T10:18:21.546Z,55.78
2024-03-03T10:20:23.793Z,56.92
2024-03-03T10:22:25.768Z,58.53
2024-03-03T10:24:28.730Z,53.60
2024-03-03T10:26:36.867Z,56.20
2024-03-03T10:28:38.791Z,54.80
2024-03-03T10:30:40.622Z,62.40
2024-03-03T10:32:43.610Z,59.40
2024-03-03T10:34:58.319Z,54.42
2024-03-03T10:37:04.483Z,52.38
2024-03-03T10:39:09.432Z,64.22
2024-03-03T10:41:11.337Z,52.20
2024-03-03T10:43:13.228Z,52.17
2024-03-03T10:45:15.486Z,53.45
2024-03-03T10:47:19.902Z,52.75
2024-03-03T10:49:26.559Z,50.58
2024-03-03T10:51:28.775Z,51.15
2024-03-03T10:53:32.720Z,50.22
2024-03-03T10:55:35.138Z,44.85
2024-03-03T10:57:37.347Z,48.95
2024-03-03T10:59:42.602Z,50.00
2024-03-03T11:01:45.248Z,45.25
2024-03-03T11:03:48.688Z,46.63
2024-03-03T11:05:53.907Z,43.47
2024-03-03T11:07:55.906Z,52.22
2024-03-03T11:09:58.394Z,48.05
2024-03-03T11:12:02.076Z,40.38
2024-03-03T11:14:13.255Z,44.92
2024-03-03T11:16:15.244Z,42.65
2024-03-03T11:18:20.082Z,40.63
2024-03-03T11:20:23.878Z,45.30
2024-03-03T11:24:33.360Z,41.20
2024-03-03T11:26:53.721Z,42.05
2024-03-03T11:29:00.727Z,45.92
2024-03-03T11:31:03.761Z,41.08
2024-03-03T11:33:05.983Z,37.45
2024-03-03T11:35:08.469Z,39.53
2024-03-03T11:37:13.050Z,40.22
2024-03-03T11:39:18.017Z,38.38
2024-03-03T11:41:21.777Z,38.10
2024-03-03T11:43:27.237Z,41.92
2024-03-03T11:45:45.953Z,37.17
2024-03-03T11:47:48.653Z,41.08
2024-03-03T11:49:51.090Z,49.75
2024-03-03T11:51:53.262Z,37.55
2024-03-03T11:54:05.172Z,37.35
2024-03-03T11:56:18.954Z,42.15
2024-03-03T11:58:21.326Z,39.08
2024-03-03T12:00:28.780Z,39.35
2024-03-03T12:02:31.143Z,37.65
2024-03-03T12:04:33.052Z,43.35
2024-03-03T12:06:35.642Z,38.00
2024-03-03T12:08:37.685Z,39.83
2024-03-03T12:10:42.356Z,33.65
2024-03-03T12:12:57.842Z,31.75
2024-03-03T12:15:00.814Z,33.70
2024-03-03T12:17:03.321Z,35.13
2024-03-03T12:19:05.688Z,37.22
2024-03-03T12:21:07.559Z,31.63
2024-03-03T12:23:09.875Z,30.55
2024-03-03T12:25:12.342Z,38.05
2024-03-03T12:27:14.210Z,28.75
2024-03-03T12:29:17.022Z,34.53
2024-03-03T12:31:19.239Z,26.10
2024-03-03T12:33:21.266Z,29.30
2024-03-03T12:35:23.867Z,29.08
2024-03-03T12:37:26.493Z,28.60
2024-03-03T12:39:28.562Z,30.30
2024-03-03T12:41:31.198Z,29.80
2024-03-03T12:43:33.364Z,29.05
2024-03-03T12:45:35.323Z,25.60
2024-03-03T12:47:37.150Z,26.85
2024-03-03T12:49:39.579Z,28.48
2024-03-03T12:51:42.775Z,24.52
2024-03-03T12:53:45.236Z,23.23
2024-03-03T12:55:47.164Z,20.42
2024-03-03T12:57:48.967Z,18.77
2024-03-03T12:59:50.973Z,21.00
2024-03-03T13:01:53.337Z,18.00
2024-03-03T13:03:55.683Z,20.50
2024-03-03T13:05:57.580Z,16.63
2024-03-03T13:08:00.258Z,18.80
2024-03-03T13:10:14.191Z,20.35
2024-03-03T13:12:19.784Z,24.17
2024-03-03T13:14:23.965Z,28.23
2024-03-03T13:16:27.260Z,26.08
2024-03-03T13:18:29.152Z,20.73
2024-03-03T13:20:32.080Z,21.45
2024-03-03T13:22:34.011Z,21.38
2024-03-03T13:24:37.535Z,18.67
2024-03-03T13:26:42.110Z,23.60
2024-03-03T13:28:46.600Z,24.63
2024-03-03T13:31:01.433Z,20.10
2024-03-03T13:33:03.324Z,18.92
2024-03-03T13:35:06.052Z,17.27
2024-03-03T13:37:08.942Z,16.77
2024-03-03T13:39:12.063Z,17.90
2024-03-03T13:41:14.031Z,21.50
2024-03-03T13:43:15.885Z,22.67
2024-03-03T13:45:17.860Z,20.58
2024-03-03T13:47:19.682Z,20.85
2024-03-03T13:49:22.064Z,20.15
2024-03-03T13:51:23.966Z,18.48
2024-03-03T13:53:25.645Z,20.27
2024-03-03T13:55:28.003Z,20.88
2024-03-03T13:57:29.982Z,20.50
2024-03-03T13:59:33.058Z,20.00
2024-03-03T14:01:34.945Z,24.48
2024-03-03T14:03:36.726Z,26.42
2024-03-03T14:05:39.333Z,26.50
2024-03-03T14:07:44.472Z,26.67
2024-03-03T14:09:47.385Z,25.95
2024-03-03T14:11:49.298Z,25.02
2024-03-03T14:13:51.203Z,25.08
2024-03-03T14:15:53.590Z,22.63
2024-03-03T14:17:55.336Z,21.77
2024-03-03T14:19:57.598Z,20.00
2024-03-03T14:21:59.333Z,24.75
2024-03-03T14:24:01.691Z,20.13
2024-03-03T14:26:03.639Z,15.98
2024-03-03T14:28:12.442Z,17.15
2024-03-03T14:30:15.992Z,17.55
2024-03-03T14:32:17.800Z,16.67
2024-03-03T14:34:19.704Z,14.90
2024-03-03T14:36:24.433Z,13.45
2024-03-03T14:38:26.156Z,12.93
2024-03-03T14:40:28.268Z,9.90
2024-03-03T14:42:31.742Z,12.98
2024-03-03T14:44:33.486Z,18.20
2024-03-03T14:46:35.691Z,8.73
2024-03-03T14:48:37.600Z,11.50
2024-03-03T14:50:39.459Z,9.75
2024-03-03T14:52:41.229Z,7.13
2024-03-03T14:54:43.527Z,6.82
2024-03-03T14:56:45.455Z,10.52
2024-03-03T14:58:47.507Z,13.18
2024-03-03T15:00:50.168Z,14.98
2024-03-03T15:02:52.946Z,14.55
2024-03-03T15:04:54.786Z,10.95
2024-03-03T15:06:58.075Z,11.50
2024-03-03T15:08:59.837Z,12.20
2024-03-03T15:11:02.269Z,11.77
2024-03-03T15:13:06.818Z,11.00
2024-03-03T15:15:09.217Z,22.80
2024-03-03T15:17:21.158Z,14.15
2024-03-03T15:19:24.145Z,15.85
2024-03-03T15:21:26.145Z,14.00
2024-03-03T15:23:27.946Z,19.95
2024-03-03T15:25:29.796Z,19.38
2024-03-03T15:27:31.793Z,21.30
2024-03-03T15:29:33.571Z,19.52
2024-03-03T15:31:35.509Z,22.17
2024-03-03T15:33:37.625Z,21.63
2024-03-03T15:35:39.432Z,21.98
2024-03-03T15:37:41.501Z,18.73
2024-03-03T15:39:43.319Z,18.58
2024-03-03T15:41:45.156Z,18.33
2024-03-03T15:43:47.237Z,16.73
2024-03-03T15:45:49.451Z,12.02
2024-03-03T15:47:51.392Z,14.85
2024-03-03T15:49:53.351Z,10.43
2024-03-03T15:51:55.293Z,13.05
2024-03-03T15:53:57.037Z,11.77
2024-03-03T15:56:00.011Z,14.55
2024-03-03T15:58:02.393Z,15.43
2024-03-03T16:00:07.797Z,15.75
2024-03-03T16:02:09.664Z,20.20
2024-03-03T16:04:11.522Z,19.50
2024-03-03T16:06:13.361Z,16.77
2024-03-03T16:08:17.011Z,19.52
2024-03-03T16:10:18.902Z,17.55
2024-03-03T16:12:20.869Z,13.43
2024-03-03T16:14:22.958Z,15.07
2024-03-03T16:16:30.262Z,17.50
2024-03-03T16:18:32.760Z,13.93
2024-03-03T16:20:34.646Z,12.98
2024-03-03T16:22:39.844Z,13.52
2024-03-03T16:24:41.769Z,12.00
2024-03-03T16:26:44.470Z,10.80
2024-03-03T16:28:46.301Z,10.80
2024-03-03T16:30:48.174Z,22.40
2024-03-03T16:32:50.106Z,11.90
2024-03-03T16:34:51.886Z,18.50
2024-03-03T16:36:54.254Z,19.00
2024-03-03T16:38:56.735Z,14.93
2024-03-03T16:40:59.033Z,14.10
2024-03-03T16:43:04.284Z,12.05
2024-03-03T16:45:08.719Z,14.98
2024-03-03T16:47:11.129Z,14.45
2024-03-03T16:49:12.968Z,12.85
2024-03-03T16:51:15.016Z,12.32
2024-03-03T16:53:16.726Z,14.85
2024-03-03T16:55:20.717Z,21.67
2024-03-03T16:57:22.596Z,21.77
2024-03-03T16:59:24.372Z,12.52
2024-03-03T17:01:26.478Z,12.98
2024-03-03T17:03:31.633Z,10.45
2024-03-03T17:05:34.503Z,13.30
2024-03-03T17:07:36.820Z,13.35
2024-03-03T17:09:38.617Z,17.35
2024-03-03T17:11:41.296Z,13.00
2024-03-03T17:13:43.267Z,15.68
2024-03-03T17:15:45.175Z,12.45
2024-03-03T17:17:47.055Z,15.35
2024-03-03T17:19:49.478Z,17.27
2024-03-03T17:21:51.389Z,15.35
2024-03-03T17:23:53.158Z,15.80
2024-03-03T17:25:55.531Z,13.65
2024-03-03T17:27:57.414Z,17.55
2024-03-03T17:29:59.293Z,16.80
2024-03-03T17:32:01.207Z,11.95
2024-03-03T17:34:03.163Z,13.73
2024-03-03T17:36:06.390Z,16.15
2024-03-03T17:38:08.876Z,16.80
2024-03-03T17:40:10.942Z,12.63
2024-03-03T17:42:12.778Z,15.27
2024-03-03T17:44:14.740Z,14.40
2024-03-03T17:46:16.652Z,11.95
2024-03-03T17:48:19.646Z,13.82
2024-03-03T17:50:21.406Z,12.40
2024-03-03T17:52:23.333Z,14.27
2024-03-03T17:54:25.374Z,13.63
2024-03-03T17:56:27.205Z,12.40
2024-03-03T17:58:29.970Z,11.43
2024-03-03T18:00:31.867Z,10.68
2024-03-03T18:02:33.609Z,10.10
2024-03-03T18:04:35.651Z,14.38
2024-03-03T18:06:37.681Z,15.32
2024-03-03T18:08:39.497Z,9.07
2024-03-03T18:10:41.517Z,9.07
2024-03-03T18:12:43.280Z,9.60
2024-03-03T18:14:45.105Z,20.63
2024-03-03T18:16:46.934Z,12.63
2024-03-03T18:18:48.826Z,16.63
2024-03-03T18:20:50.783Z,17.50
2024-03-03T18:22:52.574Z,23.10
2024-03-03T18:24:54.673Z,24.73
2024-03-03T18:26:56.462Z,23.15
2024-03-03T18:28:58.359Z,24.95
2024-03-03T18:31:00.807Z,30.73
2024-03-03T18:33:04.651Z,26.67
2024-03-03T18:35:08.611Z,24.55
2024-03-03T18:37:11.899Z,25.90
2024-03-03T18:39:13.704Z,26.80
2024-03-03T18:41:18.047Z,26.00
2024-03-03T18:43:20.004Z,25.40
2024-03-03T18:45:22.417Z,28.63
2024-03-03T18:47:24.329Z,25.85
2024-03-03T18:49:26.975Z,31.75
2024-03-03T18:51:29.878Z,30.40
2024-03-03T18:53:35.476Z,32.17
2024-03-03T18:55:37.452Z,24.15
2024-03-03T18:57:39.418Z,27.30
2024-03-03T18:59:41.588Z,34.67
2024-03-03T19:01:44.103Z,25.08
2024-03-03T19:03:46.044Z,27.90
2024-03-03T19:05:47.942Z,26.77
2024-03-03T19:07:50.012Z,29.27
2024-03-03T19:09:51.922Z,30.38
2024-03-03T19:11:54.734Z,25.83
2024-03-03T19:13:57.563Z,31.45
2024-03-03T19:15:59.473Z,32.35
2024-03-03T19:18:01.642Z,32.83
2024-03-03T19:20:04.906Z,40.95
2024-03-03T19:22:06.867Z,38.50
2024-03-03T19:24:09.396Z,40.58
2024-03-03T19:26:11.375Z,49.03
2024-03-03T19:28:13.288Z,35.63
2024-03-03T19:30:16.173Z,43.15
2024-03-03T19:32:17.976Z,36.90
2024-03-03T19:34:20.064Z,35.65
2024-03-03T19:36:22.011Z,38.10
2024-03-03T19:38:24.876Z,37.10
2024-03-03T19:40:26.989Z,32.30
2024-03-03T19:42:29.048Z,35.17
2024-03-03T19:44:31.033Z,36.38
2024-03-03T19:46:33.181Z,37.38
2024-03-03T19:48:35.262Z,32.83
2024-03-03T19:50:37.299Z,34.13
2024-03-03T19:52:39.245Z,34.55
2024-03-03T19:54:41.091Z,32.05
2024-03-03T19:56:42.871Z,34.65
2024-03-03T19:58:44.628Z,34.75
2024-03-03T20:00:46.547Z,33.75
2024-03-03T20:02:49.381Z,26.50
2024-03-03T20:04:51.247Z,29.70
2024-03-03T20:06:53.273Z,22.80
2024-03-03T20:08:55.081Z,24.75
2024-03-03T20:11:00.183Z,27.92
2024-03-03T20:13:05.427Z,23.38
2024-03-03T20:15:09.551Z,30.40
2024-03-03T20:19:17.148Z,29.10
2024-03-03T20:21:19.096Z,30.08
2024-03-03T20:23:24.371Z,25.95
2024-03-03T20:25:26.330Z,29.50
2024-03-03T20:27:28.193Z,27.70
2024-03-03T20:29:30.073Z,31.45
2024-03-03T20:31:32.571Z,29.83
2024-03-03T20:33:34.480Z,29.17
2024-03-03T20:35:36.301Z,28.75
2024-03-03T20:37:38.151Z,29.92
2024-03-03T20:39:40.113Z,30.23
2024-03-03T20:41:44.073Z,32.95
2024-03-03T20:45:51.281Z,28.38
2024-03-03T20:47:53.318Z,31.98
2024-03-03T20:49:55.099Z,32.50
2024-03-03T20:51:56.889Z,31.55
2024-03-03T20:53:59.102Z,31.52
2024-03-03T20:56:01.087Z,31.63
2024-03-03T20:58:03.438Z,31.35
2024-03-03T21:00:09.875Z,30.40
2024-03-03T21:02:13.386Z,30.50
2024-03-03T21:04:16.525Z,35.60
2024-03-03T21:06:19.021Z,30.38
2024-03-03T21:08:21.461Z,30.23
2024-03-03T21:10:23.461Z,30.52
2024-03-03T21:12:25.852Z,35.15
2024-03-03T21:14:28.051Z,33.88
2024-03-03T21:16:30.178Z,32.90
2024-03-03T21:18:32.082Z,33.03
2024-03-03T21:20:33.893Z,29.77
2024-03-03T21:22:36.140Z,29.50
2024-03-03T21:24:38.825Z,31.52
2024-03-03T21:26:45.455Z,31.38
2024-03-03T21:28:49.359Z,33.35
2024-03-03T21:32:53.443Z,31.85
2024-03-03T21:34:55.335Z,33.97
2024-03-03T21:36:58.103Z,33.25
2024-03-03T21:39:00.003Z,34.67
2024-03-03T21:41:03.675Z,38.13
2024-03-03T21:43:13.062Z,34.47
2024-03-03T21:45:15.250Z,37.72
2024-03-03T21:47:18.883Z,37.67
2024-03-03T21:49:20.848Z,39.60
2024-03-03T21:51:22.744Z,38.47
2024-03-03T21:53:24.558Z,34.05
2024-03-03T21:55:26.576Z,34.05
2024-03-03T21:57:28.770Z,31.90
2024-03-03T21:59:30.490Z,28.35
2024-03-03T22:01:32.290Z,30.67
2024-03-03T22:03:34.149Z,27.85
2024-03-03T22:05:36.244Z,28.48
2024-03-03T22:07:38.148Z,33.47
2024-03-03T22:09:40.955Z,27.67
2024-03-03T22:11:42.872Z,30.17
2024-03-03T22:13:44.785Z,33.92
2024-03-03T22:15:46.685Z,29.77
2024-03-03T22:17:48.451Z,31.65
2024-03-03T22:19:50.219Z,32.72
2024-03-03T22:21:52.191Z,32.33
2024-03-03T22:23:54.191Z,29.35
2024-03-03T22:25:58.551Z,30.02
2024-03-03T22:28:00.440Z,28.70
2024-03-03T22:30:02.261Z,30.55
2024-03-03T22:32:04.920Z,31.17
2024-03-03T22:34:07.246Z,29.83
2024-03-03T22:36:09.598Z,28.73
2024-03-03T22:38:11.692Z,29.55
2024-03-03T22:40:15.987Z,29.35
2024-03-03T22:42:17.844Z,26.23
2024-03-03T22:44:19.792Z,30.15
2024-03-03T22:46:23.254Z,26.88
2024-03-03T22:48:26.785Z,29.65
2024-03-03T22:50:30.661Z,31.33
2024-03-03T22:54:34.377Z,33.60
2024-03-03T22:56:36.232Z,30.42
2024-03-03T22:58:38.187Z,33.15
2024-03-03T23:00:41.480Z,32.17
2024-03-03T23:02:43.357Z,34.13
2024-03-03T23:04:48.735Z,34.15
2024-03-03T23:06:51.597Z,34.85
2024-03-03T23:08:53.566Z,33.80
2024-03-03T23:10:55.719Z,30.88
2024-03-03T23:12:57.504Z,36.15
2024-03-03T23:14:59.437Z,32.10
2024-03-03T23:17:01.205Z,37.10
2024-03-03T23:19:03.054Z,35.17
2024-03-03T23:21:05.243Z,34.83
2024-03-03T23:23:06.983Z,34.00
2024-03-03T23:25:09.096Z,39.55
2024-03-03T23:27:10.965Z,36.50
2024-03-03T23:29:13.050Z,30.63
2024-03-03T23:31:15.627Z,33.00
2024-03-03T23:33:17.531Z,32.92
2024-03-03T23:35:19.448Z,31.98
2024-03-03T23:37:21.546Z,34.05
2024-03-03T23:39:23.535Z,32.92
2024-03-03T23:41:25.440Z,34.40
2024-03-03T23:43:29.221Z,39.53
2024-03-03T23:47:32.797Z,34.17
2024-03-03T23:49:34.929Z,36.78
2024-03-03T23:51:37.242Z,33.80
2024-03-03T23:53:38.996Z,35.88
2024-03-03T23:55:40.878Z,35.97
2024-03-03T23:57:42.903Z,32.90
2024-03-03T23:59:45.138Z,30.80
